Hong Hing — 3FWZ4 — position and weather

sailwx.info

Track history (hours):
 
Tides and Currents Weather Stations Pressure Air Temp Water Temp Dewpoint Dewpoint Depression Visibility Wind Speed Wind Dir Waves Ship Positions

Hong Hing

Last reported at 2017-Dec-04 10:30 UTC. Time now 2017-Dec-12 23:47 UTC.
Position N 36°11' W 026°01'.
Warning: this ship's position is 8 days out of date.

Length 225 m; draft 8.1 m.

Type: Cargo ship. MMSI: 356791000.

Date/timePositionNaut miles runAvg speedWind from/ knotsBaromVisibWave heightAir tempDewpointWater temp
2017-Dec-04 10:30N 36°11' W 026°01'612.6
2017-Dec-04 10:01N 36°13' W 025°53'612.7
2017-Dec-04 09:30N 36°14' W 025°46'611.8
2017-Dec-04 09:00N 36°16' W 025°39'611.8
2017-Dec-04 08:30N 36°18' W 025°32'611.7
2017-Dec-04 08:00N 36°20' W 025°25'611.5
2017-Dec-04 07:30N 36°21' W 025°18'611.9
2017-Dec-04 07:00N 36°23' W 025°11'611.7
2017-Dec-04 06:31N 36°25' W 025°04'611.5
2017-Dec-04 06:00N 36°26' W 024°57'611.4
2017-Dec-04 05:30N 36°28' W 024°50'611.8
2017-Dec-04 05:01N 36°32' W 024°45'611.7
2017-Dec-04 04:30N 36°37' W 024°41'611.5
2017-Dec-04 04:00N 36°42' W 024°37'611.4
2017-Dec-04 03:30N 36°46' W 024°32'611.3
2017-Dec-04 03:00N 36°51' W 024°28'611.5
2017-Dec-04 02:30N 36°55' W 024°24'611.3
2017-Dec-04 02:00N 36°60' W 024°19'611.4
2017-Dec-04 01:30N 37°04' W 024°15'611.3
2017-Dec-04 01:00N 37°09' W 024°11'611.1
2017-Dec-04 00:30N 37°13' W 024°07'511.0
2017-Dec-04 00:00N 37°18' W 024°03'611.0
2017-Dec-03 23:30N 37°22' W 023°59'510.9
2017-Dec-03 23:00N 37°27' W 023°55'611.2
2017-Dec-03 22:30N 37°32' W 023°51'611.4
2017-Dec-03 22:00N 37°36' W 023°47'611.4
2017-Dec-03 21:30N 37°41' W 023°44'611.4
2017-Dec-03 21:00N 37°47' W 023°42'611.1
2017-Dec-03 20:30N 37°52' W 023°40'611.3
2017-Dec-03 19:59N 37°58' W 023°37'511.3
2017-Dec-03 19:30N 38°03' W 023°34'1311.4
2017-Dec-03 18:22N 38°14' W 023°28'611.3
2017-Dec-03 17:49N 38°20' W 023°25'511.0
2017-Dec-03 17:24N 38°24' W 023°22'510.4
2017-Dec-03 16:53N 38°29' W 023°19'  
2017-Nov-25 05:36N 39°13' W 010°36'110.7
2017-Nov-25 05:30N 39°12' W 010°37'710.8
2017-Nov-25 04:51N 39°05' W 010°40'410.8
2017-Nov-25 04:29N 39°02' W 010°42'510.9
2017-Nov-25 04:01N 38°57' W 010°44'811.0
2017-Nov-25 03:19N 38°49' W 010°47'10210.7
2017-Nov-24 17:48N 37°12' W 011°27'311.9
2017-Nov-24 17:31N 37°09' W 011°29'611.7
2017-Nov-24 16:59N 37°04' W 011°32'611.7
2017-Nov-24 16:30N 36°58' W 011°34'1311.6
2017-Nov-24 15:24N 36°47' W 011°41'411.1
2017-Nov-24 15:00N 36°43' W 011°44'511.0
2017-Nov-24 14:30N 36°38' W 011°47'711.6
2017-Nov-24 13:53N 36°32' W 011°52'411.7
2017-Nov-24 13:30N 36°29' W 011°56'611.6
2017-Nov-24 13:00N 36°24' W 012°00'611.4
2017-Nov-24 12:30N 36°19' W 012°03'  
Track history (hours):
 
Tides and Currents Weather Stations Pressure Air Temp Water Temp Dewpoint Dewpoint Depression Visibility Wind Speed Wind Dir Waves Ship Positions

Hong Hing

Last reported at 2017-Dec-04 10:30 UTC. Time now 2017-Dec-12 23:47 UTC.
Position N 36°11' W 026°01'.
Warning: this ship's position is 8 days out of date.

Length 225 m; draft 8.1 m.

Type: Cargo ship. MMSI: 356791000.

Date/timePositionNaut miles runAvg speedWind from/ knotsBaromVisibWave heightAir tempDewpointWater temp
2017-Dec-04 10:30N 36°11' W 026°01'612.6
2017-Dec-04 10:01N 36°13' W 025°53'612.7
2017-Dec-04 09:30N 36°14' W 025°46'611.8
2017-Dec-04 09:00N 36°16' W 025°39'611.8
2017-Dec-04 08:30N 36°18' W 025°32'611.7
2017-Dec-04 08:00N 36°20' W 025°25'611.5
2017-Dec-04 07:30N 36°21' W 025°18'611.9
2017-Dec-04 07:00N 36°23' W 025°11'611.7
2017-Dec-04 06:31N 36°25' W 025°04'611.5
2017-Dec-04 06:00N 36°26' W 024°57'611.4
2017-Dec-04 05:30N 36°28' W 024°50'611.8
2017-Dec-04 05:01N 36°32' W 024°45'611.7
2017-Dec-04 04:30N 36°37' W 024°41'611.5
2017-Dec-04 04:00N 36°42' W 024°37'611.4
2017-Dec-04 03:30N 36°46' W 024°32'611.3
2017-Dec-04 03:00N 36°51' W 024°28'611.5
2017-Dec-04 02:30N 36°55' W 024°24'611.3
2017-Dec-04 02:00N 36°60' W 024°19'611.4
2017-Dec-04 01:30N 37°04' W 024°15'611.3
2017-Dec-04 01:00N 37°09' W 024°11'611.1
2017-Dec-04 00:30N 37°13' W 024°07'511.0
2017-Dec-04 00:00N 37°18' W 024°03'611.0
2017-Dec-03 23:30N 37°22' W 023°59'510.9
2017-Dec-03 23:00N 37°27' W 023°55'611.2
2017-Dec-03 22:30N 37°32' W 023°51'611.4
2017-Dec-03 22:00N 37°36' W 023°47'611.4
2017-Dec-03 21:30N 37°41' W 023°44'611.4
2017-Dec-03 21:00N 37°47' W 023°42'611.1
2017-Dec-03 20:30N 37°52' W 023°40'611.3
2017-Dec-03 19:59N 37°58' W 023°37'511.3
2017-Dec-03 19:30N 38°03' W 023°34'1311.4
2017-Dec-03 18:22N 38°14' W 023°28'611.3
2017-Dec-03 17:49N 38°20' W 023°25'511.0
2017-Dec-03 17:24N 38°24' W 023°22'510.4
2017-Dec-03 16:53N 38°29' W 023°19'  
2017-Nov-25 05:36N 39°13' W 010°36'110.7
2017-Nov-25 05:30N 39°12' W 010°37'710.8
2017-Nov-25 04:51N 39°05' W 010°40'410.8
2017-Nov-25 04:29N 39°02' W 010°42'510.9
2017-Nov-25 04:01N 38°57' W 010°44'811.0
2017-Nov-25 03:19N 38°49' W 010°47'10210.7
2017-Nov-24 17:48N 37°12' W 011°27'311.9
2017-Nov-24 17:31N 37°09' W 011°29'611.7
2017-Nov-24 16:59N 37°04' W 011°32'611.7
2017-Nov-24 16:30N 36°58' W 011°34'1311.6
2017-Nov-24 15:24N 36°47' W 011°41'411.1
2017-Nov-24 15:00N 36°43' W 011°44'511.0
2017-Nov-24 14:30N 36°38' W 011°47'711.6
2017-Nov-24 13:53N 36°32' W 011°52'411.7
2017-Nov-24 13:30N 36°29' W 011°56'611.6
2017-Nov-24 13:00N 36°24' W 012°00'611.4
2017-Nov-24 12:30N 36°19' W 012°03'  

Dump ship's entire track history